createdAt,value
2022-12-20T00:00:46.607Z,5.77
2022-12-20T00:03:52.916Z,5.72
2022-12-20T00:06:55.785Z,5.67
2022-12-20T00:10:01.213Z,5.82
2022-12-20T00:13:05.303Z,5.85
2022-12-20T00:16:09.989Z,5.77
2022-12-20T00:19:14.151Z,5.71
2022-12-20T00:22:16.859Z,5.95
2022-12-20T00:25:22.600Z,5.83
2022-12-20T00:28:26.797Z,5.68
2022-12-20T00:31:33.463Z,5.90
2022-12-20T00:34:37.483Z,5.72
2022-12-20T00:37:40.604Z,5.72
2022-12-20T00:40:45.897Z,5.80
2022-12-20T00:43:50.801Z,5.78
2022-12-20T00:46:53.834Z,5.81
2022-12-20T00:49:57.795Z,5.69
2022-12-20T00:53:00.771Z,5.74
2022-12-20T00:56:06.238Z,5.84
2022-12-20T00:59:10.232Z,5.89
2022-12-20T01:02:13.485Z,5.71
2022-12-20T01:05:17.607Z,5.89
2022-12-20T01:08:21.141Z,5.89
2022-12-20T01:11:29.431Z,5.88
2022-12-20T01:14:34.291Z,5.87
2022-12-20T01:17:37.265Z,5.87
2022-12-20T01:20:41.260Z,6.00
2022-12-20T01:23:43.995Z,5.88
2022-12-20T01:26:50.178Z,6.01
2022-12-20T01:29:54.238Z,6.04
2022-12-20T01:32:56.969Z,6.05
2022-12-20T01:36:02.738Z,6.01
2022-12-20T01:39:08.739Z,5.90
2022-12-20T01:42:16.618Z,6.05
2022-12-20T01:45:29.023Z,5.94
2022-12-20T01:48:32.047Z,5.85
2022-12-20T01:51:40.487Z,5.85
2022-12-20T01:54:47.804Z,5.75
2022-12-20T01:57:58.824Z,5.86
2022-12-20T02:01:02.893Z,5.84
2022-12-20T02:04:05.881Z,6.04
2022-12-20T02:07:12.087Z,5.85
2022-12-20T02:10:16.607Z,5.62
2022-12-20T02:13:35.835Z,5.85
2022-12-20T02:16:46.602Z,5.69
2022-12-20T02:20:24.469Z,5.67
2022-12-20T02:24:03.400Z,5.80
2022-12-20T02:27:45.463Z,5.77
2022-12-20T02:30:54.834Z,5.67
2022-12-20T02:34:00.588Z,5.51
2022-12-20T02:37:03.820Z,5.68
2022-12-20T02:40:09.425Z,5.82
2022-12-20T02:43:28.296Z,5.93
2022-12-20T02:46:33.900Z,5.89
2022-12-20T02:49:42.317Z,5.87
2022-12-20T02:52:45.715Z,5.91
2022-12-20T02:55:55.214Z,5.81
2022-12-20T03:02:27.911Z,5.88
2022-12-20T03:05:33.119Z,5.79
2022-12-20T03:08:36.608Z,5.98
2022-12-20T03:11:40.691Z,5.96
2022-12-20T03:14:44.023Z,5.93
2022-12-20T03:17:49.289Z,5.95
2022-12-20T03:20:52.026Z,5.95
2022-12-20T03:23:54.971Z,5.89
2022-12-20T03:26:59.597Z,5.83
2022-12-20T03:30:02.357Z,5.93
2022-12-20T03:33:07.693Z,6.01
2022-12-20T03:36:10.528Z,5.93
2022-12-20T03:39:13.290Z,5.96
2022-12-20T03:42:17.534Z,6.06
2022-12-20T03:45:20.343Z,6.12
2022-12-20T03:48:25.624Z,6.04
2022-12-20T03:51:29.777Z,5.95
2022-12-20T03:54:32.611Z,5.94
2022-12-20T03:57:36.441Z,5.96
2022-12-20T04:00:39.410Z,5.93
2022-12-20T04:03:44.913Z,5.80
2022-12-20T04:06:49.355Z,5.75
2022-12-20T04:09:52.248Z,5.84
2022-12-20T04:12:56.071Z,5.88
2022-12-20T04:16:00.872Z,5.95
2022-12-20T04:19:06.555Z,5.89
2022-12-20T04:22:10.491Z,5.96
2022-12-20T04:25:13.742Z,5.99
2022-12-20T04:28:17.599Z,5.82
2022-12-20T04:31:24.167Z,5.82
2022-12-20T04:34:30.096Z,5.89
2022-12-20T04:37:34.065Z,6.03
2022-12-20T04:40:38.743Z,5.88
2022-12-20T04:43:42.608Z,5.78
2022-12-20T04:46:45.611Z,5.91
2022-12-20T04:49:50.831Z,5.89
2022-12-20T04:53:12.371Z,5.98
2022-12-20T04:56:16.795Z,5.94
2022-12-20T04:59:20.628Z,6.04
2022-12-20T05:02:23.561Z,5.95
2022-12-20T05:05:29.203Z,6.07
2022-12-20T05:08:31.925Z,6.07
2022-12-20T05:11:35.764Z,6.07
2022-12-20T05:14:40.143Z,6.15
2022-12-20T05:17:42.831Z,5.99
2022-12-20T05:21:11.774Z,6.05
2022-12-20T05:24:31.834Z,6.09
2022-12-20T05:27:35.666Z,6.11
2022-12-20T05:30:38.760Z,6.23
2022-12-20T05:33:41.558Z,6.14
2022-12-20T05:36:46.856Z,6.21
2022-12-20T05:39:50.446Z,6.19
2022-12-20T05:42:54.315Z,6.17
2022-12-20T05:45:57.060Z,6.17
2022-12-20T05:49:01.198Z,5.98
2022-12-20T05:52:06.927Z,6.13
2022-12-20T05:55:10.423Z,6.22
2022-12-20T05:58:15.467Z,6.17
2022-12-20T06:01:18.344Z,6.17
2022-12-20T06:04:22.794Z,6.16
2022-12-20T06:07:30.020Z,6.18
2022-12-20T06:10:34.598Z,6.22
2022-12-20T06:13:38.788Z,6.08
2022-12-20T06:16:41.986Z,6.19
2022-12-20T06:19:45.883Z,6.39
2022-12-20T06:22:51.159Z,6.34
2022-12-20T06:25:54.341Z,6.25
2022-12-20T06:32:24.876Z,6.41
2022-12-20T06:35:29.149Z,6.44
2022-12-20T06:38:34.663Z,6.38
2022-12-20T06:41:38.170Z,6.43
2022-12-20T06:44:42.012Z,6.38
2022-12-20T06:47:44.724Z,6.44
2022-12-20T06:50:55.451Z,6.37
2022-12-20T06:54:01.431Z,6.44
2022-12-20T06:57:04.320Z,6.49
2022-12-20T07:00:11.669Z,6.44
2022-12-20T07:03:14.971Z,6.32
2022-12-20T07:06:19.098Z,6.31
2022-12-20T07:09:24.374Z,6.61
2022-12-20T07:12:27.147Z,6.76
2022-12-20T07:15:33.567Z,6.70
2022-12-20T07:18:36.432Z,6.44
2022-12-20T07:21:40.833Z,6.47
2022-12-20T07:24:46.455Z,6.49
2022-12-20T07:27:49.875Z,6.34
2022-12-20T07:30:52.955Z,6.37
2022-12-20T07:33:55.699Z,6.31
2022-12-20T07:36:59.237Z,6.45
2022-12-20T07:40:06.877Z,6.38
2022-12-20T07:43:11.719Z,6.37
2022-12-20T07:46:17.642Z,6.41
2022-12-20T07:49:20.459Z,6.46
2022-12-20T07:52:27.557Z,6.44
2022-12-20T07:55:34.641Z,6.42
2022-12-20T07:58:40.856Z,6.45
2022-12-20T08:01:46.604Z,6.43
2022-12-20T08:04:51.001Z,6.26
2022-12-20T08:07:59.387Z,6.36
2022-12-20T08:11:04.775Z,6.39
2022-12-20T08:14:11.572Z,6.38
2022-12-20T08:17:15.219Z,6.37
2022-12-20T08:20:18.938Z,6.37
2022-12-20T08:23:22.472Z,6.39
2022-12-20T08:26:27.102Z,6.39
2022-12-20T08:29:29.965Z,6.46
2022-12-20T08:32:32.727Z,6.51
2022-12-20T08:35:35.453Z,6.53
2022-12-20T08:38:39.322Z,6.66
2022-12-20T08:41:43.491Z,6.49
2022-12-20T08:44:46.335Z,6.48
2022-12-20T08:47:49.109Z,6.60
2022-12-20T08:50:56.429Z,6.56
2022-12-20T08:53:59.400Z,6.62
2022-12-20T08:57:03.632Z,6.78
2022-12-20T09:00:07.888Z,6.65
2022-12-20T09:03:11.738Z,6.75
2022-12-20T09:06:16.430Z,6.73
2022-12-20T09:09:19.472Z,6.88
2022-12-20T09:12:23.563Z,6.91
2022-12-20T09:15:27.676Z,6.94
2022-12-20T09:18:30.492Z,6.96
2022-12-20T09:21:33.307Z,7.15
2022-12-20T09:24:38.534Z,7.11
2022-12-20T09:27:47.274Z,7.16
2022-12-20T09:30:50.107Z,7.43
2022-12-20T09:33:55.005Z,7.42
2022-12-20T09:36:59.444Z,7.55
2022-12-20T09:40:02.759Z,7.53
2022-12-20T09:43:11.988Z,7.51
2022-12-20T09:46:16.488Z,7.63
2022-12-20T09:49:22.736Z,7.53
2022-12-20T09:52:50.516Z,7.67
2022-12-20T09:56:01.026Z,7.55
2022-12-20T09:59:08.858Z,7.58
2022-12-20T10:02:44.419Z,7.66
2022-12-20T10:05:47.255Z,7.81
2022-12-20T10:08:56.787Z,7.87
2022-12-20T10:12:14.717Z,7.73
2022-12-20T10:15:26.497Z,7.71
2022-12-20T10:18:49.239Z,7.89
2022-12-20T10:22:00.199Z,7.92
2022-12-20T10:25:16.409Z,7.90
2022-12-20T10:28:26.359Z,7.99
2022-12-20T10:31:33.445Z,8.11
2022-12-20T10:34:40.001Z,8.09
2022-12-20T10:38:07.920Z,8.12
2022-12-20T10:41:21.825Z,8.13
2022-12-20T10:44:28.504Z,8.17
2022-12-20T10:47:42.456Z,8.23
2022-12-20T10:50:57.785Z,8.39
2022-12-20T10:54:04.286Z,8.35
2022-12-20T10:57:20.808Z,8.39
2022-12-20T11:00:31.165Z,8.55
2022-12-20T11:03:36.912Z,8.24
2022-12-20T11:06:45.492Z,8.22
2022-12-20T11:09:59.161Z,8.37
2022-12-20T11:13:05.597Z,8.47
2022-12-20T11:16:37.289Z,8.46
2022-12-20T11:19:57.681Z,8.48
2022-12-20T11:23:19.787Z,8.43
2022-12-20T11:26:38.640Z,8.39
2022-12-20T11:30:05.966Z,8.61
2022-12-20T11:33:26.027Z,8.52
2022-12-20T11:36:50.254Z,8.70
2022-12-20T11:40:05.390Z,8.88
2022-12-20T11:43:54.177Z,9.08
2022-12-20T11:47:17.688Z,8.93
2022-12-20T11:50:45.595Z,8.95
2022-12-20T11:53:58.485Z,8.99
2022-12-20T11:57:05.399Z,9.09
2022-12-20T12:00:14.230Z,8.96
2022-12-20T12:03:28.394Z,8.99
2022-12-20T12:06:39.868Z,9.09
2022-12-20T12:09:56.482Z,9.07
2022-12-20T12:13:17.302Z,9.08
2022-12-20T12:16:25.518Z,9.16
2022-12-20T12:19:30.861Z,9.18
2022-12-20T12:22:41.921Z,9.23
2022-12-20T12:25:47.711Z,9.12
2022-12-20T12:28:57.819Z,9.33
2022-12-20T12:32:06.321Z,9.20
2022-12-20T12:35:40.189Z,9.23
2022-12-20T12:39:10.306Z,9.30
2022-12-20T12:42:46.012Z,9.30
2022-12-20T12:45:51.482Z,9.37
2022-12-20T12:49:01.201Z,9.38
2022-12-20T12:52:07.231Z,9.29
2022-12-20T12:55:45.545Z,9.46
2022-12-20T12:59:21.815Z,9.41
2022-12-20T13:02:36.426Z,9.34
2022-12-20T13:05:46.905Z,9.25
2022-12-20T13:09:10.808Z,9.18
2022-12-20T13:12:50.713Z,9.32
2022-12-20T13:16:16.454Z,9.37
2022-12-20T13:19:32.490Z,9.27
2022-12-20T13:22:35.531Z,9.30
2022-12-20T13:25:40.432Z,9.16
2022-12-20T13:28:46.870Z,9.11
2022-12-20T13:31:54.605Z,9.33
2022-12-20T13:35:01.038Z,9.34
2022-12-20T13:38:06.365Z,9.46
2022-12-20T13:41:20.287Z,9.37
2022-12-20T13:44:38.470Z,9.24
2022-12-20T13:47:52.534Z,9.33
2022-12-20T13:50:56.880Z,9.05
2022-12-20T13:54:06.058Z,9.10
2022-12-20T13:57:12.732Z,9.15
2022-12-20T14:00:18.930Z,9.01
2022-12-20T14:03:26.333Z,9.04
2022-12-20T14:06:29.531Z,9.12
2022-12-20T14:09:35.461Z,8.93
2022-12-20T14:12:44.919Z,8.90
2022-12-20T14:15:48.334Z,9.02
2022-12-20T14:19:03.094Z,8.93
2022-12-20T14:22:06.719Z,8.92
2022-12-20T14:25:13.125Z,8.98
2022-12-20T14:28:32.893Z,9.02
2022-12-20T14:31:41.469Z,8.88
2022-12-20T14:34:45.646Z,8.80
2022-12-20T14:37:54.812Z,8.82
2022-12-20T14:40:58.383Z,8.84
2022-12-20T14:44:07.129Z,8.74
2022-12-20T14:47:19.592Z,8.82
2022-12-20T14:50:31.447Z,8.76
2022-12-20T14:53:36.071Z,8.67
2022-12-20T14:56:48.003Z,8.66
2022-12-20T15:00:00.607Z,8.76
2022-12-20T15:03:13.169Z,8.75
2022-12-20T15:06:33.059Z,8.65
2022-12-20T15:09:38.809Z,8.55
2022-12-20T15:12:44.252Z,8.67
2022-12-20T15:15:47.196Z,8.58
2022-12-20T15:18:51.173Z,8.53
2022-12-20T15:21:55.860Z,8.48
2022-12-20T15:25:01.180Z,8.67
2022-12-20T15:28:06.074Z,8.72
2022-12-20T15:31:14.154Z,8.62
2022-12-20T15:34:32.231Z,8.51
2022-12-20T15:37:39.698Z,8.51
2022-12-20T15:40:42.509Z,8.45
2022-12-20T15:43:47.188Z,8.55
2022-12-20T15:46:50.467Z,8.39
2022-12-20T15:49:53.582Z,8.40
2022-12-20T15:52:58.398Z,8.49
2022-12-20T15:56:03.827Z,8.44
2022-12-20T15:59:32.545Z,8.34
2022-12-20T16:02:38.212Z,8.35
2022-12-20T16:05:43.633Z,8.29
2022-12-20T16:08:47.908Z,8.17
2022-12-20T16:11:53.355Z,8.19
2022-12-20T16:14:57.870Z,8.07
2022-12-20T16:18:00.676Z,8.15
2022-12-20T16:21:05.336Z,8.08
2022-12-20T16:24:13.883Z,8.08
2022-12-20T16:27:16.975Z,8.05
2022-12-20T16:30:23.424Z,8.23
2022-12-20T16:33:27.204Z,8.18
2022-12-20T16:36:30.707Z,8.16
2022-12-20T16:39:35.820Z,8.22
2022-12-20T16:42:38.619Z,8.22
2022-12-20T16:45:41.521Z,8.20
2022-12-20T16:48:46.653Z,7.94
2022-12-20T16:51:52.566Z,8.04
2022-12-20T16:54:58.865Z,8.05
2022-12-20T16:58:01.823Z,8.08
2022-12-20T17:01:04.797Z,8.02
2022-12-20T17:04:09.794Z,7.91
2022-12-20T17:07:14.191Z,8.20
2022-12-20T17:10:20.999Z,7.99
2022-12-20T17:13:24.235Z,8.10
2022-12-20T17:16:28.008Z,7.98
2022-12-20T17:19:30.833Z,7.98
2022-12-20T17:25:55.261Z,7.89
2022-12-20T17:29:00.577Z,7.90
2022-12-20T17:32:03.964Z,8.05
2022-12-20T17:35:08.171Z,8.07
2022-12-20T17:38:11.089Z,7.94
2022-12-20T17:41:23.196Z,8.08
2022-12-20T17:44:29.762Z,7.97
2022-12-20T17:47:33.887Z,8.11
2022-12-20T17:50:36.593Z,8.01
2022-12-20T17:53:39.567Z,8.12
2022-12-20T17:56:43.683Z,8.09
2022-12-20T17:59:48.033Z,7.96
2022-12-20T18:02:50.928Z,7.91
2022-12-20T18:09:18.299Z,7.96
2022-12-20T18:12:22.394Z,8.03
2022-12-20T18:15:26.649Z,8.09
2022-12-20T18:18:36.564Z,8.04
2022-12-20T18:21:40.419Z,8.12
2022-12-20T18:24:44.392Z,7.95
2022-12-20T18:27:48.657Z,7.89
2022-12-20T18:30:52.651Z,7.96
2022-12-20T18:33:58.360Z,7.77
2022-12-20T18:37:01.835Z,7.90
2022-12-20T18:43:28.417Z,7.86
2022-12-20T18:46:31.239Z,7.78
2022-12-20T18:49:35.659Z,7.89
2022-12-20T18:52:41.159Z,7.90
2022-12-20T18:55:45.906Z,7.98
2022-12-20T18:58:50.071Z,7.75
2022-12-20T19:01:53.212Z,7.78
2022-12-20T19:04:57.265Z,7.74
2022-12-20T19:07:59.994Z,7.67
2022-12-20T19:11:08.404Z,7.68
2022-12-20T19:14:13.522Z,7.68
2022-12-20T19:17:17.935Z,7.78
2022-12-20T19:20:21.181Z,7.89
2022-12-20T19:23:25.125Z,7.53
2022-12-20T19:26:30.964Z,7.63
2022-12-20T19:29:35.462Z,7.74
2022-12-20T19:32:39.505Z,7.62
2022-12-20T19:35:55.334Z,7.65
2022-12-20T19:39:00.752Z,7.69
2022-12-20T19:42:23.710Z,7.53
2022-12-20T19:45:30.079Z,7.68
2022-12-20T19:48:34.465Z,7.59
2022-12-20T19:51:38.810Z,7.50
2022-12-20T19:54:43.052Z,7.55
2022-12-20T19:57:47.300Z,7.40
2022-12-20T20:00:52.854Z,7.42
2022-12-20T20:03:57.194Z,7.42
2022-12-20T20:07:01.290Z,7.44
2022-12-20T20:10:04.221Z,7.50
2022-12-20T20:13:09.878Z,7.62
2022-12-20T20:16:21.945Z,7.59
2022-12-20T20:19:25.810Z,7.54
2022-12-20T20:22:29.810Z,7.49
2022-12-20T20:25:35.397Z,7.56
2022-12-20T20:28:45.017Z,7.49
2022-12-20T20:31:51.358Z,7.55
2022-12-20T20:34:54.457Z,7.45
2022-12-20T20:37:58.485Z,7.38
2022-12-20T20:41:01.808Z,7.49
2022-12-20T20:47:29.340Z,7.53
2022-12-20T20:50:32.466Z,7.40
2022-12-20T20:53:37.148Z,7.38
2022-12-20T20:56:39.893Z,7.42
2022-12-20T20:59:45.922Z,7.42
2022-12-20T21:02:51.587Z,7.39
2022-12-20T21:09:18.995Z,7.72
2022-12-20T21:12:23.383Z,7.47
2022-12-20T21:15:28.081Z,7.44
2022-12-20T21:18:33.629Z,7.38
2022-12-20T21:21:36.400Z,7.38
2022-12-20T21:24:40.958Z,7.59
2022-12-20T21:27:45.492Z,8.06
2022-12-20T21:30:48.505Z,8.16
2022-12-20T21:33:53.983Z,8.31
2022-12-20T21:36:57.147Z,8.33
2022-12-20T21:40:01.163Z,8.37
2022-12-20T21:43:03.949Z,7.99
2022-12-20T21:46:11.093Z,8.06
2022-12-20T21:49:16.091Z,7.96
2022-12-20T21:52:18.973Z,7.99
2022-12-20T21:55:25.536Z,7.93
2022-12-20T21:58:30.274Z,7.93
2022-12-20T22:01:33.246Z,8.03
2022-12-20T22:04:40.424Z,7.88
2022-12-20T22:07:43.259Z,8.03
2022-12-20T22:10:47.465Z,8.31
2022-12-20T22:13:56.706Z,8.23
2022-12-20T22:16:59.620Z,8.35
2022-12-20T22:23:25.529Z,8.33
2022-12-20T22:26:31.872Z,8.31
2022-12-20T22:29:36.022Z,8.13
2022-12-20T22:32:38.799Z,8.01
2022-12-20T22:35:44.343Z,8.15
2022-12-20T22:38:48.203Z,8.18
2022-12-20T22:41:52.675Z,7.98
2022-12-20T22:44:56.927Z,8.01
2022-12-20T22:47:59.915Z,7.81
2022-12-20T22:51:07.802Z,7.96
2022-12-20T22:54:10.568Z,7.88
2022-12-20T22:57:14.771Z,8.10
2022-12-20T23:00:19.203Z,8.07
2022-12-20T23:03:22.019Z,7.86
2022-12-20T23:06:27.589Z,8.02
2022-12-20T23:09:30.485Z,8.01
2022-12-20T23:12:52.072Z,8.02
2022-12-20T23:15:56.139Z,8.10
2022-12-20T23:19:00.399Z,7.98
2022-12-20T23:22:23.263Z,7.87
2022-12-20T23:25:26.387Z,7.82
2022-12-20T23:28:30.777Z,7.69
2022-12-20T23:31:35.694Z,7.79
2022-12-20T23:34:38.485Z,7.60
2022-12-20T23:37:43.331Z,7.44
2022-12-20T23:40:46.078Z,7.58
2022-12-20T23:43:50.369Z,7.63
2022-12-20T23:46:54.411Z,7.74
2022-12-20T23:49:57.118Z,7.61
2022-12-20T23:53:03.091Z,7.59
2022-12-20T23:56:08.308Z,7.47
2022-12-20T23:59:12.430Z,7.40
